Time;durP1;ratioP1;P1;durP2;ratioP2;P2;SDS_P1;SDS_P2;PMS_P1;PMS_P2;Temp;Humidity;BMP_temperature;BMP_pressure;BME280_temperature;BME280_humidity;BME280_pressure;Samples;Min_cycle;Max_cycle;Signal;HPM_P1;HPM_P2
2022/08/15 00:01:47;;;;;;;3.22;2.92;;;30.00;51.90;;;;;;5054392;28;20017;-75
2022/08/15 00:04:13;;;;;;;3.33;2.90;;;29.90;51.90;;;;;;5054362;28;20025;-75
2022/08/15 00:06:42;;;;;;;2.92;2.65;;;29.90;52.70;;;;;;5054461;28;20028;-75
2022/08/15 00:09:14;;;;;;;3.47;2.88;;;29.90;52.00;;;;;;5054145;28;20021;-75
2022/08/15 00:11:44;;;;;;;4.22;2.80;;;29.90;52.00;;;;;;5054110;28;20021;-75
2022/08/15 00:14:15;;;;;;;3.22;2.47;;;29.90;51.90;;;;;;5054351;28;20040;-75
2022/08/15 00:16:43;;;;;;;;;;;29.90;52.10;;;;;;5054737;28;20025;-75
2022/08/15 00:19:18;;;;;;;4.03;2.78;;;29.90;52.10;;;;;;5054407;28;20263;-75
2022/08/15 00:21:48;;;;;;;4.43;2.83;;;29.90;52.10;;;;;;5054378;28;20028;-75
2022/08/15 00:24:16;;;;;;;2.92;2.72;;;29.80;52.20;;;;;;5053819;28;20049;-75
2022/08/15 00:26:48;;;;;;;3.92;2.75;;;29.80;52.30;;;;;;5054144;28;20063;-75
2022/08/15 00:29:15;;;;;;;3.00;2.80;;;29.80;52.40;;;;;;5054131;28;20396;-75
2022/08/15 00:31:41;;;;;;;3.15;2.88;;;29.80;52.50;;;;;;5053719;28;20029;-75
2022/08/15 00:34:13;;;;;;;3.08;2.80;;;29.70;52.50;;;;;;5053653;28;20036;-75
2022/08/15 00:36:39;;;;;;;4.00;2.97;;;29.60;52.50;;;;;;5053662;28;20025;-75
2022/08/15 00:39:06;;;;;;;2.90;2.60;;;29.60;52.60;;;;;;5053686;28;20044;-75
2022/08/15 00:41:41;;;;;;;3.17;2.90;;;29.60;52.70;;;;;;5053589;28;20025;-75
2022/08/15 00:44:20;;;;;;;8.82;3.13;;;29.60;52.70;;;;;;5053970;28;20407;-75
2022/08/15 00:46:59;;;;;;;3.15;2.95;;;29.60;52.80;;;;;;5053728;28;20048;-75
2022/08/15 00:49:27;;;;;;;3.50;2.70;;;29.60;52.80;;;;;;5053768;28;20044;-75
2022/08/15 00:51:54;;;;;;;3.65;2.80;;;29.60;52.90;;;;;;5053698;28;20033;-75
2022/08/15 00:54:23;;;;;;;3.15;2.85;;;29.60;52.90;;;;;;5053224;28;20029;-75
2022/08/15 00:56:55;;;;;;;3.92;3.00;;;29.60;52.90;;;;;;5053712;28;20421;-75
2022/08/15 00:59:25;;;;;;;3.42;3.22;;;29.60;53.00;;;;;;5053593;28;20064;-76
2022/08/15 01:01:51;;;;;;;3.00;2.80;;;29.50;53.00;;;;;;5053329;28;20025;-75
2022/08/15 01:04:19;;;;;;;3.08;2.88;;;29.50;53.20;;;;;;5053382;28;20024;-75
2022/08/15 01:06:46;;;;;;;4.32;3.22;;;29.50;53.30;;;;;;5053257;28;20022;-75
2022/08/15 01:09:13;;;;;;;3.83;3.53;;;29.30;53.40;;;;;;5053476;28;20032;-75
2022/08/15 01:12:21;;;;;;;3.40;3.10;;;29.20;53.50;;;;;;5053325;28;20079;-75
2022/08/15 01:14:55;;;;;;;3.65;3.00;;;29.30;54.20;;;;;;5040862;28;20423;-75
2022/08/15 01:17:22;;;;;;;3.38;2.97;;;29.20;53.60;;;;;;5053133;28;20515;-76
2022/08/15 01:20:02;;;;;;;4.18;3.55;;;29.20;53.70;;;;;;5053322;28;20056;-75
2022/08/15 01:22:47;;;;;;;3.53;3.22;;;29.20;53.80;;;;;;5052944;28;20063;-75
2022/08/15 01:25:15;;;;;;;3.58;2.80;;;29.20;54.00;;;;;;5052856;28;20044;-75
2022/08/15 01:28:06;;;;;;;3.10;2.88;;;29.10;54.00;;;;;;5053372;28;20036;-75
2022/08/15 01:30:36;;;;;;;3.72;3.10;;;29.10;54.10;;;;;;5052428;28;20037;-75
2022/08/15 01:33:02;;;;;;;3.60;3.30;;;29.10;54.30;;;;;;5052886;28;20087;-75
2022/08/15 01:35:29;;;;;;;3.53;3.22;;;29.00;54.60;;;;;;5053212;28;20025;-75
2022/08/15 01:37:57;;;;;;;5.03;3.78;;;28.90;54.70;;;;;;5053134;28;20381;-75
2022/08/15 01:40:39;;;;;;;3.45;3.15;;;28.90;54.90;;;;;;5052936;28;20483;-75
2022/08/15 01:43:07;;;;;;;4.20;3.15;;;28.80;54.80;;;;;;5053223;28;20025;-75
2022/08/15 01:45:35;;;;;;;3.78;3.42;;;28.80;55.50;;;;;;5052843;28;20032;-75
2022/08/15 01:48:10;;;;;;;4.40;3.67;;;28.80;55.00;;;;;;5052795;28;20476;-75
2022/08/15 01:50:49;;;;;;;4.15;3.50;;;28.80;55.10;;;;;;5052767;28;20025;-75
2022/08/15 01:53:23;;;;;;;3.60;3.30;;;28.70;55.10;;;;;;5053082;28;20060;-75
2022/08/15 01:56:13;;;;;;;2.97;2.78;;;28.70;55.10;;;;;;5052484;28;20434;-75
2022/08/15 01:58:41;;;;;;;3.45;3.15;;;28.70;55.10;;;;;;5053150;28;20051;-75
2022/08/15 02:01:11;;;;;;;3.40;3.10;;;28.70;55.10;;;;;;5053021;28;20025;-75
2022/08/15 02:03:39;;;;;;;3.42;3.15;;;28.70;55.00;;;;;;5052570;28;20070;-75
2022/08/15 02:06:09;;;;;;;3.13;2.92;;;28.70;55.00;;;;;;5052642;28;20036;-75
2022/08/15 02:08:37;;;;;;;3.33;3.08;;;28.70;55.10;;;;;;5052756;28;20104;-75
2022/08/15 02:11:15;;;;;;;3.22;2.92;;;28.70;55.00;;;;;;5052813;28;20384;-75
2022/08/15 02:13:41;;;;;;;3.95;3.15;;;28.70;54.90;;;;;;5052727;28;20132;-75
2022/08/15 02:16:07;;;;;;;3.53;2.80;;;28.70;54.80;;;;;;5052906;28;20100;-75
2022/08/15 02:18:33;;;;;;;3.80;3.40;;;28.80;54.80;;;;;;5052760;28;20025;-75
2022/08/15 02:20:59;;;;;;;3.13;2.90;;;28.80;54.90;;;;;;5052538;28;20028;-75
2022/08/15 02:23:26;;;;;;;3.30;2.75;;;28.80;54.80;;;;;;5052590;28;20025;-74
2022/08/15 02:25:54;;;;;;;3.67;3.10;;;28.80;54.80;;;;;;5052520;28;20089;-77
2022/08/15 02:28:23;;;;;;;3.60;3.30;;;28.80;55.10;;;;;;5052401;28;20033;-76
2022/08/15 02:30:50;;;;;;;3.63;3.33;;;28.70;55.40;;;;;;5052567;28;20021;-75
2022/08/15 02:33:16;;;;;;;3.47;3.17;;;28.60;55.40;;;;;;5053185;28;20396;-75
2022/08/15 02:35:41;;;;;;;3.65;3.35;;;28.60;55.40;;;;;;5056027;28;20025;-75
2022/08/15 02:38:07;;;;;;;3.50;3.20;;;28.60;55.40;;;;;;5056162;28;20040;-75
2022/08/15 02:40:34;;;;;;;3.25;2.95;;;28.60;55.50;;;;;;5055870;28;20028;-75
2022/08/15 02:43:08;;;;;;;3.58;3.28;;;28.50;55.50;;;;;;5055649;28;20464;-75
2022/08/15 02:45:38;;;;;;;4.00;3.70;;;28.60;55.60;;;;;;5055731;28;20056;-75
2022/08/15 02:48:06;;;;;;;6.03;3.83;;;28.50;55.60;;;;;;5056115;28;20397;-75
2022/08/15 02:50:33;;;;;;;4.68;3.38;;;28.50;55.60;;;;;;5055507;28;20028;-75
2022/08/15 02:53:00;;;;;;;4.63;4.22;;;28.50;55.70;;;;;;5055755;28;20037;-75
2022/08/15 02:55:26;;;;;;;3.88;3.50;;;28.50;55.90;;;;;;5055643;28;20021;-75
2022/08/15 02:57:52;;;;;;;4.03;3.50;;;28.40;55.80;;;;;;5055833;28;20120;-75
2022/08/15 03:00:18;;;;;;;3.20;3.00;;;28.40;56.00;;;;;;5055639;28;20417;-75
2022/08/15 03:02:55;;;;;;;3.50;3.20;;;28.40;56.20;;;;;;5055533;28;20465;-76
2022/08/15 03:05:23;;;;;;;4.38;4.03;;;28.30;56.10;;;;;;5055480;28;20485;-75
2022/08/15 03:07:49;;;;;;;4.22;3.83;;;28.30;56.30;;;;;;5055718;28;20029;-75
2022/08/15 03:10:19;;;;;;;4.10;3.80;;;28.20;56.30;;;;;;5055421;28;20500;-76
2022/08/15 03:12:57;;;;;;;3.72;3.40;;;28.20;56.50;;;;;;5054876;28;20476;-75
2022/08/15 03:15:36;;;;;;;4.30;3.95;;;28.10;56.60;;;;;;5055488;28;20032;-75
2022/08/15 03:18:03;;;;;;;4.10;3.80;;;28.10;56.70;;;;;;5055446;28;20025;-75
2022/08/15 03:20:29;;;;;;;3.90;3.50;;;28.10;56.80;;;;;;5055488;28;20359;-75
2022/08/15 03:22:55;;;;;;;4.00;3.60;;;28.10;56.80;;;;;;5055191;28;20036;-75
2022/08/15 03:25:24;;;;;;;5.20;4.13;;;28.10;56.70;;;;;;5054516;28;20063;-75
2022/08/15 03:27:51;;;;;;;3.67;3.38;;;28.10;56.80;;;;;;5055684;28;20064;-75
2022/08/15 03:30:17;;;;;;;4.20;3.80;;;28.10;56.80;;;;;;5055186;28;20025;-75
2022/08/15 03:32:55;;;;;;;4.22;3.88;;;28.10;57.20;;;;;;5054819;28;20017;-75
2022/08/15 03:35:23;;;;;;;3.97;3.67;;;28.00;57.20;;;;;;5054989;28;20033;-75
2022/08/15 03:37:49;;;;;;;3.47;3.28;;;28.00;57.20;;;;;;5054644;28;20108;-75
2022/08/15 03:40:15;;;;;;;4.45;4.05;;;28.10;57.30;;;;;;5055090;28;20065;-75
2022/08/15 03:42:57;;;;;;;3.97;3.58;;;28.10;57.20;;;;;;5055033;28;20055;-75
2022/08/15 03:45:24;;;;;;;3.42;3.10;;;28.10;57.10;;;;;;5054830;28;20029;-75
2022/08/15 03:47:50;;;;;;;4.32;3.92;;;28.10;57.20;;;;;;5054411;28;20056;-75
2022/08/15 03:50:17;;;;;;;4.07;3.65;;;28.10;57.30;;;;;;5054838;28;20063;-75
2022/08/15 03:52:54;;;;;;;4.45;4.05;;;28.10;57.30;;;;;;5054518;28;20541;-75
2022/08/15 03:55:22;;;;;;;4.50;4.10;;;28.10;57.60;;;;;;5054703;28;20033;-75
2022/08/15 03:57:48;;;;;;;4.90;4.50;;;28.10;57.50;;;;;;5054439;28;20025;-75
2022/08/15 04:00:16;;;;;;;4.13;3.78;;;28.10;57.80;;;;;;5054514;28;20025;-75
2022/08/15 04:02:42;;;;;;;4.40;4.00;;;28.10;58.00;;;;;;5054286;28;20472;-75
2022/08/15 04:05:08;;;;;;;6.50;4.85;;;28.00;58.10;;;;;;5054663;28;20040;-75
2022/08/15 04:07:36;;;;;;;4.20;3.88;;;28.00;58.40;;;;;;5054489;28;20040;-75
2022/08/15 04:10:05;;;;;;;4.68;4.18;;;28.00;58.50;;;;;;5054197;28;20036;-75
2022/08/15 04:12:35;;;;;;;4.40;4.10;;;28.00;58.70;;;;;;5054164;28;20496;-75
2022/08/15 04:15:07;;;;;;;7.03;4.32;;;28.00;58.90;;;;;;5054407;28;20425;-75
2022/08/15 04:17:33;;;;;;;;;;;28.00;59.10;;;;;;5054456;28;20021;-75
2022/08/15 04:19:59;;;;;;;4.90;4.40;;;28.00;59.20;;;;;;5054381;28;19912;-75
2022/08/15 04:22:34;;;;;;;4.75;4.35;;;27.90;59.10;;;;;;5054011;28;20033;-75
2022/08/15 04:25:09;;;;;;;4.90;4.00;;;27.90;59.50;;;;;;5053831;28;20508;-75
2022/08/15 04:27:36;;;;;;;4.05;3.75;;;27.90;59.80;;;;;;5054143;28;20029;-74
2022/08/15 04:30:03;;;;;;;4.65;4.25;;;27.80;59.90;;;;;;5053775;28;20115;-75
2022/08/15 04:32:29;;;;;;;4.63;4.22;;;27.80;60.10;;;;;;5053794;28;20029;-74
2022/08/15 04:34:58;;;;;;;4.25;3.95;;;27.80;60.30;;;;;;5053941;28;20033;-74
2022/08/15 04:37:25;;;;;;;5.25;4.28;;;27.70;60.40;;;;;;5053791;28;20105;-75
2022/08/15 04:39:51;;;;;;;4.78;4.25;;;27.70;60.50;;;;;;5053730;28;20546;-74
2022/08/15 04:42:20;;;;;;;6.90;4.78;;;27.80;60.70;;;;;;5053398;28;20025;-74
2022/08/15 04:44:49;;;;;;;4.95;4.50;;;27.70;61.00;;;;;;5053924;28;20025;-74
2022/08/15 04:47:16;;;;;;;5.10;4.38;;;27.60;61.50;;;;;;5053774;28;20109;-74
2022/08/15 04:49:43;;;;;;;5.70;4.43;;;27.60;61.70;;;;;;5053844;28;20036;-74
2022/08/15 04:52:14;;;;;;;5.80;5.07;;;27.60;62.10;;;;;;5053296;28;20033;-75
2022/08/15 04:54:40;;;;;;;8.85;4.80;;;27.50;62.60;;;;;;5053445;28;20120;-75
2022/08/15 04:57:08;;;;;;;5.93;5.32;;;27.50;62.90;;;;;;5053125;28;20032;-75
2022/08/15 04:59:35;;;;;;;4.95;4.55;;;27.40;63.00;;;;;;5053083;28;20108;-75
2022/08/15 05:02:01;;;;;;;6.65;5.57;;;27.30;63.20;;;;;;5053795;28;20067;-75
2022/08/15 05:04:26;;;;;;;7.75;6.05;;;27.30;63.50;;;;;;5053408;28;20049;-75
2022/08/15 05:06:52;;;;;;;7.22;6.53;;;27.10;64.20;;;;;;5053358;28;20021;-74
2022/08/15 05:09:17;;;;;;;7.78;6.28;;;27.10;64.40;;;;;;5053195;28;20025;-74
2022/08/15 05:11:43;;;;;;;6.68;6.07;;;27.00;64.00;;;;;;5052892;28;20036;-74
2022/08/15 05:14:08;;;;;;;6.93;6.28;;;26.90;64.30;;;;;;5053274;28;20068;-74
2022/08/15 05:16:34;;;;;;;8.40;7.60;;;26.90;64.60;;;;;;5053015;28;20361;-75
2022/08/15 05:19:00;;;;;;;8.73;6.97;;;26.90;64.90;;;;;;5052898;28;20050;-75
2022/08/15 05:21:27;;;;;;;9.05;7.97;;;26.90;65.10;;;;;;5053348;28;20021;-74
2022/08/15 05:23:53;;;;;;;9.20;8.30;;;26.70;65.00;;;;;;5052714;28;20041;-74
2022/08/15 05:26:19;;;;;;;11.65;10.52;;;26.70;65.00;;;;;;5053272;28;20039;-74
2022/08/15 05:28:44;;;;;;;12.95;10.95;;;26.60;65.20;;;;;;5052986;28;20021;-74
2022/08/15 05:31:11;;;;;;;11.95;9.63;;;26.40;65.40;;;;;;5052647;28;20104;-74
2022/08/15 05:33:38;;;;;;;13.35;11.23;;;26.30;65.40;;;;;;5052813;28;20451;-74
2022/08/15 05:36:06;;;;;;;16.95;12.13;;;26.20;65.70;;;;;;5052918;28;20017;-74
2022/08/15 05:39:04;;;;;;;13.60;12.18;;;26.20;66.00;;;;;;5052858;28;20396;-75
2022/08/15 05:41:57;;;;;;;12.90;11.52;;;25.90;66.50;;;;;;5040640;28;20387;-75
2022/08/15 05:44:36;;;;;;;14.60;13.13;;;25.80;67.00;;;;;;5052527;28;20104;-75
2022/08/15 05:47:08;;;;;;;13.10;11.77;;;25.60;67.80;;;;;;5052673;28;20036;-74
2022/08/15 05:49:34;;;;;;;14.10;12.70;;;25.50;67.20;;;;;;5053012;28;20431;-75
2022/08/15 05:52:18;;;;;;;15.73;10.50;;;25.50;67.30;;;;;;5052859;28;20029;-74
2022/08/15 05:55:02;;;;;;;12.93;11.55;;;25.40;67.20;;;;;;5052418;28;20059;-74
2022/08/15 05:57:35;;;;;;;11.20;10.00;;;25.30;67.40;;;;;;5052695;28;20464;-74
2022/08/15 06:00:07;;;;;;;14.43;9.50;;;25.20;67.50;;;;;;5052950;28;20032;-74
2022/08/15 06:02:35;;;;;;;9.68;8.73;;;25.20;67.10;;;;;;5052539;28;20021;-74
2022/08/15 06:05:20;;;;;;;11.35;8.52;;;25.20;67.00;;;;;;5052438;28;20021;-75
2022/08/15 06:07:49;;;;;;;14.40;9.10;;;25.30;66.90;;;;;;5052980;28;20028;-74
2022/08/15 06:10:23;;;;;;;10.93;8.88;;;25.30;66.90;;;;;;5056749;28;20478;-74
2022/08/15 06:12:50;;;;;;;9.73;8.18;;;25.30;66.90;;;;;;5056445;28;20436;-75
2022/08/15 06:15:25;;;;;;;9.75;7.22;;;25.30;66.50;;;;;;5056558;28;20032;-75
2022/08/15 06:17:58;;;;;;;8.13;6.00;;;25.20;66.30;;;;;;5056475;28;20032;-75
2022/08/15 06:20:43;;;;;;;6.53;5.78;;;25.20;66.20;;;;;;5056194;28;20476;-75
2022/08/15 06:23:32;;;;;;;9.82;5.75;;;25.20;67.00;;;;;;5044984;28;20036;-75
2022/08/15 06:26:17;;;;;;;11.60;4.40;;;25.10;66.60;;;;;;5056009;28;20048;-75
2022/08/15 06:28:48;;;;;;;4.32;3.92;;;25.10;66.80;;;;;;5055948;28;20036;-74
2022/08/15 06:31:28;;;;;;;6.75;3.83;;;25.10;66.40;;;;;;5056040;28;20025;-74
2022/08/15 06:33:59;;;;;;;10.65;3.40;;;25.10;66.00;;;;;;5056082;28;20045;-74
2022/08/15 06:36:36;;;;;;;5.70;3.13;;;25.20;66.00;;;;;;5056161;28;20028;-74
2022/08/15 06:39:31;;;;;;;7.68;3.03;;;25.30;65.20;;;;;;5056043;28;20032;-74
2022/08/15 06:42:04;;;;;;;4.90;2.90;;;25.40;65.30;;;;;;5055320;28;20064;-76
2022/08/15 06:44:31;;;;;;;4.88;2.55;;;25.50;64.90;;;;;;5056040;28;20102;-75
2022/08/15 06:47:07;;;;;;;3.80;2.58;;;25.50;64.50;;;;;;5055856;28;20021;-75
2022/08/15 06:49:37;;;;;;;8.05;2.50;;;25.60;64.40;;;;;;5055794;28;20013;-75
2022/08/15 06:52:05;;;;;;;6.47;2.30;;;25.60;64.30;;;;;;5055925;28;20106;-75
2022/08/15 06:54:32;;;;;;;3.67;2.35;;;25.60;64.30;;;;;;5055608;28;20033;-75
2022/08/15 06:57:04;;;;;;;4.60;2.00;;;25.70;64.20;;;;;;5055485;28;20025;-75
2022/08/15 06:59:44;;;;;;;4.10;1.98;;;25.80;63.90;;;;;;5055833;28;20029;-75
2022/08/15 07:02:50;;;;;;;12.27;1.67;;;25.80;63.20;;;;;;5055501;28;20047;-74
2022/08/15 07:05:27;;;;;;;4.03;2.13;;;25.90;63.20;;;;;;5044428;28;20037;-74
2022/08/15 07:08:23;;;;;;;6.50;2.00;;;25.90;63.10;;;;;;5055398;28;20029;-75
2022/08/15 07:11:14;;;;;;;4.40;1.70;;;25.90;62.80;;;;;;5055718;28;20025;-75
2022/08/15 07:14:17;;;;;;;5.93;1.50;;;25.90;62.50;;;;;;5055676;28;20033;-74
2022/08/15 07:17:00;;;;;;;5.03;1.83;;;25.90;62.60;;;;;;5054857;28;20035;-74
2022/08/15 07:19:26;;;;;;;3.55;1.38;;;25.90;62.10;;;;;;5054595;28;20037;-74
2022/08/15 07:21:52;;;;;;;5.82;1.67;;;25.90;62.10;;;;;;5055164;28;20477;-74
2022/08/15 07:24:30;;;;;;;5.40;1.60;;;25.90;62.80;;;;;;5055054;28;20106;-74
2022/08/15 07:27:04;;;;;;;4.43;1.70;;;25.90;63.10;;;;;;5055100;28;20083;-75
2022/08/15 07:29:41;;;;;;;5.25;1.70;;;25.90;63.00;;;;;;5055122;28;20506;-74
2022/08/15 07:32:43;;;;;;;5.63;1.90;;;25.90;62.90;;;;;;5055027;28;20029;-74
2022/08/15 07:35:12;;;;;;;4.28;1.65;;;25.90;62.70;;;;;;5055216;28;20044;-74
2022/08/15 07:38:03;;;;;;;9.32;1.55;;;25.80;62.90;;;;;;5054916;28;20037;-74
2022/08/15 07:40:43;;;;;;;4.63;1.70;;;25.80;62.80;;;;;;5055191;28;20021;-75
2022/08/15 07:43:28;;;;;;;6.00;2.10;;;25.80;62.60;;;;;;5055093;28;20021;-75
2022/08/15 07:46:10;;;;;;;4.80;1.80;;;25.80;62.60;;;;;;5054567;28;20025;-75
2022/08/15 07:48:35;;;;;;;3.50;1.87;;;25.80;62.60;;;;;;5054875;28;20044;-75
2022/08/15 07:51:04;;;;;;;4.93;1.73;;;25.90;62.80;;;;;;5054969;28;20452;-75
2022/08/15 07:53:31;;;;;;;5.63;2.13;;;25.90;62.70;;;;;;5054531;28;20036;-75
2022/08/15 07:56:13;;;;;;;8.40;1.85;;;25.90;62.60;;;;;;5054361;28;20354;-75
2022/08/15 07:58:41;;;;;;;;;;;25.90;62.60;;;;;;5054898;28;20499;-75
2022/08/15 08:01:29;;;;;;;8.25;1.90;;;26.00;62.50;;;;;;5054496;28;19904;-75
2022/08/15 08:04:03;;;;;;;5.10;1.77;;;26.10;62.30;;;;;;5054401;28;20469;-75
2022/08/15 08:06:40;;;;;;;5.07;2.17;;;26.10;62.10;;;;;;5054414;28;20037;-75
2022/08/15 08:09:14;;;;;;;5.35;1.60;;;26.20;62.10;;;;;;5054251;28;20040;-75
2022/08/15 08:11:45;;;;;;;5.93;2.17;;;26.20;61.70;;;;;;5054476;28;20045;-75
2022/08/15 08:14:37;;;;;;;8.15;2.58;;;26.20;61.30;;;;;;5054313;28;20108;-75
2022/08/15 08:17:12;;;;;;;;;;;26.20;61.30;;;;;;5054520;28;20028;-75
2022/08/15 08:20:03;;;;;;;11.85;3.55;;;26.30;61.70;;;;;;5054034;28;19912;-75
2022/08/15 08:22:57;;;;;;;7.05;2.70;;;26.30;60.90;;;;;;5053929;28;20082;-75
2022/08/15 08:25:29;;;;;;;3.65;2.47;;;26.30;60.90;;;;;;5053638;28;20045;-75
2022/08/15 08:28:13;;;;;;;8.13;2.42;;;26.30;60.90;;;;;;5054620;28;20118;-75
2022/08/15 08:30:57;;;;;;;8.25;2.40;;;26.20;61.00;;;;;;5053232;28;20032;-75
2022/08/15 08:33:37;;;;;;;5.25;2.50;;;26.20;61.10;;;;;;5053945;28;20048;-75
2022/08/15 08:36:21;;;;;;;4.20;2.25;;;26.20;61.00;;;;;;5053640;28;20025;-75
2022/08/15 08:38:52;;;;;;;4.47;1.70;;;26.30;61.10;;;;;;5053908;28;20024;-75
2022/08/15 08:41:34;;;;;;;8.48;2.55;;;26.30;61.20;;;;;;5053695;28;20025;-75
2022/08/15 08:44:11;;;;;;;4.15;2.25;;;26.30;61.30;;;;;;5053736;28;20029;-75
2022/08/15 08:46:55;;;;;;;5.95;1.98;;;26.30;61.10;;;;;;5053806;28;20036;-74
2022/08/15 08:49:32;;;;;;;4.68;2.63;;;26.30;60.80;;;;;;5053560;28;20021;-75
2022/08/15 08:52:16;;;;;;;4.63;1.92;;;26.30;61.10;;;;;;5053570;28;20045;-74
2022/08/15 08:55:04;;;;;;;5.82;2.25;;;26.40;61.30;;;;;;5053625;28;20119;-74
2022/08/15 08:57:41;;;;;;;4.30;1.80;;;26.40;61.30;;;;;;5053372;28;20016;-74
2022/08/15 09:00:16;;;;;;;2.30;1.90;;;26.40;60.80;;;;;;5053381;28;20472;-74
2022/08/15 09:02:58;;;;;;;4.70;2.30;;;26.50;60.60;;;;;;5053674;28;20082;-74
2022/08/15 09:05:51;;;;;;;8.20;3.20;;;26.60;60.80;;;;;;5053278;28;20028;-74
2022/08/15 09:08:29;;;;;;;9.43;3.95;;;26.70;61.50;;;;;;5053443;28;20385;-74
2022/08/15 09:10:59;;;;;;;8.50;3.97;;;26.70;60.70;;;;;;5053218;28;20029;-74
2022/08/15 09:13:34;;;;;;;7.70;3.92;;;26.80;60.70;;;;;;5053471;28;20041;-74
2022/08/15 09:16:23;;;;;;;5.25;3.78;;;26.80;60.50;;;;;;5053035;28;20480;-74
2022/08/15 09:19:09;;;;;;;7.65;3.80;;;26.80;60.40;;;;;;5052872;28;20479;-74
2022/08/15 09:21:35;;;;;;;6.85;3.80;;;26.80;60.90;;;;;;5053048;28;20079;-74
2022/08/15 09:24:02;;;;;;;9.40;5.32;;;26.90;61.50;;;;;;5052926;28;20049;-75
2022/08/15 09:26:40;;;;;;;12.50;4.78;;;26.90;61.40;;;;;;5052873;28;20090;-74
2022/08/15 09:29:29;;;;;;;9.27;4.88;;;26.80;61.40;;;;;;5053232;28;20082;-75
2022/08/15 09:32:09;;;;;;;10.90;5.38;;;26.70;61.70;;;;;;5052986;28;20025;-74
2022/08/15 09:34:53;;;;;;;7.75;4.18;;;26.70;61.50;;;;;;5053230;28;20037;-74
2022/08/15 09:38:12;;;;;;;7.20;4.70;;;26.60;61.60;;;;;;5053006;28;20024;-74
2022/08/15 09:40:56;;;;;;;6.35;3.72;;;26.60;61.40;;;;;;5051859;28;20068;-75
2022/08/15 09:43:43;;;;;;;4.75;3.55;;;26.60;61.20;;;;;;5056101;28;20060;-74
2022/08/15 09:46:30;;;;;;;9.52;2.97;;;26.60;61.00;;;;;;5057074;28;20043;-75
2022/08/15 09:49:19;;;;;;;5.80;3.15;;;26.50;61.20;;;;;;5056730;28;20060;-74
2022/08/15 09:52:22;;;;;;;4.30;2.42;;;26.50;60.80;;;;;;5057123;28;20074;-75
2022/08/15 09:54:56;;;;;;;4.78;2.35;;;26.40;60.90;;;;;;5056842;28;20033;-75
2022/08/15 09:57:28;;;;;;;5.97;2.80;;;26.50;61.20;;;;;;5057085;28;20024;-75
2022/08/15 10:00:00;;;;;;;5.43;3.00;;;26.40;61.50;;;;;;5057033;28;20079;-75
2022/08/15 10:02:27;;;;;;;;;;;26.40;61.50;;;;;;5057290;28;20029;-75
2022/08/15 10:04:55;;;;;;;6.93;3.33;;;26.40;61.90;;;;;;5056661;28;19996;-75
2022/08/15 10:07:53;;;;;;;5.18;2.72;;;26.40;62.20;;;;;;5056827;28;20024;-76
2022/08/15 10:10:31;;;;;;;5.97;3.17;;;26.40;62.60;;;;;;5056367;28;20021;-75
2022/08/15 10:13:09;;;;;;;5.95;3.90;;;26.50;62.80;;;;;;5056641;28;20025;-74
2022/08/15 10:15:46;;;;;;;6.63;3.95;;;26.50;62.80;;;;;;5056145;28;20036;-74
2022/08/15 10:18:27;;;;;;;6.82;4.53;;;26.40;63.00;;;;;;5056701;28;20032;-74
2022/08/15 10:20:52;;;;;;;7.78;4.05;;;26.40;63.30;;;;;;5056249;28;20472;-75
2022/08/15 10:23:40;;;;;;;7.18;4.18;;;26.30;63.40;;;;;;5055978;28;20074;-74
2022/08/15 10:26:31;;;;;;;7.60;4.30;;;26.30;63.70;;;;;;5055765;28;20156;-86
2022/08/15 10:29:01;;;;;;;7.63;4.15;;;26.30;64.50;;;;;;5055646;28;20028;-83
2022/08/15 10:31:37;;;;;;;8.40;4.82;;;26.30;64.90;;;;;;5056734;28;20107;-88
2022/08/15 10:34:04;;;;;;;6.22;4.35;;;26.30;65.30;;;;;;5055523;28;20036;-87
2022/08/15 10:36:36;;;;;;;5.72;3.90;;;26.30;65.70;;;;;;5056463;28;20025;-88
2022/08/15 10:39:31;;;;;;;10.40;5.17;;;26.30;66.10;;;;;;5056018;28;20028;-79
2022/08/15 10:42:25;;;;;;;10.13;5.75;;;26.30;66.60;;;;;;5056964;28;20029;-85
2022/08/15 10:45:12;;;;;;;10.50;5.25;;;26.20;67.30;;;;;;5040113;28;20033;-79
2022/08/15 10:48:11;;;;;;;10.25;5.20;;;26.20;67.80;;;;;;5055999;28;20045;-81
2022/08/15 10:50:44;;;;;;;9.15;5.75;;;26.20;68.50;;;;;;5055978;28;20021;-75
2022/08/15 10:53:29;;;;;;;8.18;5.80;;;26.30;68.70;;;;;;5055188;28;20033;-76
2022/08/15 10:56:13;;;;;;;14.85;6.85;;;26.40;68.60;;;;;;5055896;28;20025;-78
2022/08/15 10:58:39;;;;;;;12.93;7.90;;;26.40;68.20;;;;;;5053561;28;20029;-78
2022/08/15 11:01:11;;;;;;;10.60;7.25;;;26.30;68.00;;;;;;5055380;28;20516;-81
2022/08/15 11:03:43;;;;;;;;;;;26.20;68.30;;;;;;5056262;28;20056;-83
2022/08/15 11:06:13;;;;;;;9.93;6.80;;;26.20;68.30;;;;;;5058785;28;19912;-86
2022/08/15 11:08:50;;;;;;;12.75;6.95;;;26.30;68.50;;;;;;5058388;28;20025;-85
2022/08/15 11:11:19;;;;;;;11.35;7.57;;;26.40;68.60;;;;;;5055371;28;20033;-85
2022/08/15 11:13:51;;;;;;;10.05;8.07;;;26.50;68.00;;;;;;5055254;28;20025;-85
2022/08/15 11:16:30;;;;;;;9.05;6.72;;;26.50;67.90;;;;;;5055216;28;20036;-85
2022/08/15 11:18:59;;;;;;;8.02;5.15;;;26.50;68.00;;;;;;5055712;28;20082;-85
2022/08/15 11:21:36;;;;;;;10.95;7.53;;;26.70;67.90;;;;;;5055402;28;20056;-85
2022/08/15 11:24:07;;;;;;;12.70;7.35;;;26.70;67.70;;;;;;5055029;28;20045;-84
2022/08/15 11:26:39;;;;;;;12.20;7.13;;;26.70;67.60;;;;;;5055121;28;20032;-85
2022/08/15 11:29:15;;;;;;;11.23;6.72;;;26.80;68.40;;;;;;5055451;28;20016;-85
2022/08/15 11:31:48;;;;;;;10.32;5.30;;;26.90;67.80;;;;;;5055452;28;20040;-85
2022/08/15 11:34:22;;;;;;;10.05;5.90;;;26.90;67.80;;;;;;5055053;28;20033;-86
2022/08/15 11:36:50;;;;;;;9.88;5.82;;;27.00;67.80;;;;;;5054346;28;20135;-85
2022/08/15 11:39:18;;;;;;;10.52;7.10;;;27.00;67.50;;;;;;5054855;28;20032;-85
2022/08/15 11:41:49;;;;;;;11.70;6.20;;;27.10;67.40;;;;;;5054804;28;20039;-84
2022/08/15 11:44:15;;;;;;;8.05;4.63;;;27.10;67.40;;;;;;5055249;28;20025;-84
2022/08/15 11:46:45;;;;;;;7.45;4.80;;;27.10;67.40;;;;;;5054794;28;20108;-85
2022/08/15 11:49:21;;;;;;;9.00;6.50;;;27.10;67.20;;;;;;5054831;28;20049;-85
2022/08/15 11:51:50;;;;;;;11.35;6.85;;;27.20;67.00;;;;;;5054925;28;20032;-85
2022/08/15 11:54:15;;;;;;;9.38;5.78;;;27.10;66.90;;;;;;5054830;28;20037;-85
2022/08/15 11:56:48;;;;;;;8.85;5.93;;;27.10;67.10;;;;;;5054427;28;20562;-85
2022/08/15 11:59:35;;;;;;;8.00;6.63;;;27.10;67.20;;;;;;5054869;28;20028;-85
2022/08/15 12:02:06;;;;;;;12.98;7.57;;;27.10;67.00;;;;;;5054385;28;20024;-85
2022/08/15 12:04:35;;;;;;;12.03;8.23;;;27.10;67.20;;;;;;5054702;28;20036;-85
2022/08/15 12:07:10;;;;;;;10.95;6.88;;;27.10;67.40;;;;;;5053925;28;20271;-85
2022/08/15 12:09:36;;;;;;;10.52;6.28;;;27.00;67.40;;;;;;5063271;28;20235;-84
2022/08/15 12:12:02;;;;;;;6.70;4.43;;;27.00;67.30;;;;;;5062293;28;20392;-85
2022/08/15 12:14:29;;;;;;;11.18;5.72;;;27.00;67.20;;;;;;5054721;28;20037;-85
2022/08/15 12:16:59;;;;;;;7.25;5.20;;;27.10;67.20;;;;;;5054675;28;20029;-85
2022/08/15 12:19:37;;;;;;;10.65;5.95;;;27.10;67.20;;;;;;5054296;28;20033;-85
2022/08/15 12:22:13;;;;;;;7.97;5.88;;;27.10;66.90;;;;;;5054049;28;20052;-85
2022/08/15 12:24:40;;;;;;;5.32;4.28;;;27.10;67.00;;;;;;5054035;28;20049;-85
2022/08/15 12:27:07;;;;;;;10.98;6.25;;;27.10;67.00;;;;;;5054256;28;20041;-85
2022/08/15 12:29:33;;;;;;;10.13;5.88;;;27.20;67.00;;;;;;5054268;28;20139;-86
2022/08/15 12:32:02;;;;;;;8.98;5.75;;;27.20;67.00;;;;;;5053978;28;20079;-85
2022/08/15 12:34:46;;;;;;;6.70;4.70;;;27.10;67.10;;;;;;5053802;28;20043;-85
2022/08/15 12:37:17;;;;;;;9.38;6.72;;;27.10;67.10;;;;;;5053958;28;20036;-85
2022/08/15 12:39:53;;;;;;;7.38;5.40;;;27.10;67.10;;;;;;5053778;28;20096;-85
2022/08/15 12:42:24;;;;;;;8.00;5.57;;;27.10;67.10;;;;;;5054067;28;20075;-86
2022/08/15 12:44:52;;;;;;;6.97;5.10;;;27.20;67.20;;;;;;5053733;28;20061;-85
2022/08/15 12:47:20;;;;;;;11.55;6.07;;;27.20;66.90;;;;;;5053795;28;20028;-86
2022/08/15 12:49:46;;;;;;;7.18;6.05;;;27.30;67.00;;;;;;5054215;28;20260;-86
2022/08/15 12:52:12;;;;;;;6.43;4.90;;;27.30;66.90;;;;;;5053967;28;20410;-86
2022/08/15 12:54:37;;;;;;;10.57;6.68;;;27.30;66.80;;;;;;5053655;28;20037;-85
2022/08/15 12:57:03;;;;;;;9.35;4.40;;;27.30;66.60;;;;;;5053486;28;20146;-86
2022/08/15 12:59:29;;;;;;;7.75;5.40;;;27.40;66.60;;;;;;5053288;28;20025;-86
2022/08/15 13:01:56;;;;;;;7.68;4.70;;;27.40;66.50;;;;;;5053493;28;20025;-85
2022/08/15 13:04:22;;;;;;;7.25;5.28;;;27.50;66.40;;;;;;5053441;28;20035;-86
2022/08/15 13:06:54;;;;;;;6.63;5.43;;;27.60;66.40;;;;;;5053557;28;20025;-85
2022/08/15 13:09:21;;;;;;;6.95;4.80;;;27.60;66.20;;;;;;5053465;28;20028;-85
2022/08/15 13:11:47;;;;;;;6.25;5.05;;;27.60;66.10;;;;;;5059229;28;20027;-84
2022/08/15 13:14:16;;;;;;;7.57;4.90;;;27.60;66.10;;;;;;5060717;28;20039;-85
2022/08/15 13:16:45;;;;;;;9.13;5.70;;;27.70;65.80;;;;;;5053410;28;20021;-82
2022/08/15 13:19:21;;;;;;;9.80;6.30;;;27.70;65.70;;;;;;5052095;28;20581;-86